Flight Track Log - Related Links

Times and Time Zones

All times are in EDT time to prevent confusion due to time zone crossing. See the EJA831 flight status page for this flight to view local times or setup timezone preferences in your user account.


Time Position Orientation Groundspeed Altitude Reporting Facility
EDT Latitude Longitude Course Direction KTS MPH feet Rate Location/Type
Tue 04:54:26 PM 40.7711 -111.9631 239° Southwest 161 185 5,000  Level Salt Lake Center
Tue 04:55:15 PM 40.7503 -112.0097 240° Southwest 197 227 7,700 2,697 Climbing Salt Lake Center
Tue 04:56:15 PM 40.7678 -112.0889 286° West 273 314 9,900 1,221 Climbing Salt Lake Center
Tue 04:57:08 PM 40.8136 -112.1408 319° Northwest 313 360 10,000 1,316 Climbing Salt Lake Center
Tue 04:58:09 PM 40.8828 -112.2083 324° Northwest 316 364 12,400 2,683 Climbing Salt Lake Center
Tue 04:59:11 PM 40.9742 -112.1250 35° Northeast 365 420 15,500 2,710 Climbing Salt Lake Center
Tue 05:00:13 PM 40.9900 -111.9928 81° East 369 425 18,000 2,032 Climbing Salt Lake Center
Tue 05:01:15 PM 41.0039 -111.8575 82° East 381 438 19,700 1,548 Climbing Salt Lake Center
Tue 05:02:17 PM 41.0178 -111.7208 82° East 398 458 21,200 1,561 Climbing Salt Lake Center
Tue 05:03:18 PM 41.0356 -111.5408 82° East 413 475 22,900 1,415 Climbing Salt Lake Center
Tue 05:04:20 PM 41.0489 -111.3867 83° East 424 488 24,100 1,161 Climbing Salt Lake Center
Tue 05:05:22 PM 41.0628 -111.2297 83° East 431 496 25,300 1,171 Climbing Salt Lake Center
Tue 05:06:23 PM 41.0778 -111.0717 83° East 434 499 26,500 1,171 Climbing Salt Lake Center
Tue 05:07:25 PM 41.1169 -110.9147 72° East 435 501 27,700 1,171 Climbing Salt Lake Center
Tue 05:08:26 PM 41.1611 -110.7400 71° East 445 512 28,900 1,122 Climbing Salt Lake Center
Tue 05:09:28 PM 41.1942 -110.5903 74° East 447 514 30,000 1,016 Climbing Salt Lake Center
Tue 05:10:30 PM 41.2119 -110.4342 81° East 448 516 31,000 1,073 Climbing Salt Lake Center
Tue 05:11:31 PM 41.2364 -110.2539 80° East 444 511 32,200 1,073 Climbing Salt Lake Center
Tue 05:12:33 PM 41.2556 -110.0975 81° East 449 517 33,200 1,500 Climbing Salt Lake Center
Tue 05:13:35 PM 41.2658 -109.9219 85° East 430 495 35,300 2,000 Climbing Salt Lake Center
Tue 05:14:36 PM 41.2717 -109.7806 87° East 406 467 37,300 1,805 Climbing Salt Lake Center
Tue 05:15:38 PM 41.2797 -109.6197 86° East 393 452 39,000 1,306 Climbing Salt Lake Center
Tue 05:16:40 PM 41.2867 -109.4842 86° East 387 445 40,000 878 Climbing Salt Lake Center
Tue 05:17:41 PM 41.2936 -109.3256 87° East 388 447 40,800 488 Climbing Salt Lake Center
Tue 05:18:43 PM 41.3067 -109.1856 83° East 400 460 41,000 97 Climbing Salt Lake Center
Tue 05:19:45 PM 41.3300 -109.0161 80° East 425 489 41,000  Level Salt Lake Center
Tue 05:20:46 PM 41.3492 -108.8672 80° East 431 496 41,000  Level Salt Lake Center
Tue 05:21:48 PM 41.3714 -108.6900 80° East 439 505 41,000  Level Salt Lake Center
Tue 05:22:50 PM 41.3903 -108.5353 81° East 443 510 41,000  Level Salt Lake Center
Tue 05:23:51 PM 41.4131 -108.3531 80° East 446 513 41,000  Level Salt Lake Center
Tue 05:24:31 PM 41.4247 -108.2486 81° East 444 511 41,000  Level Denver Center
Tue 05:25:33 PM 41.4439 -108.0922 81° East 447 514 41,000  Level Denver Center
Tue 05:26:35 PM 41.4592 -107.9633 81° East 444 511 41,000  Level Denver Center
Tue 05:27:37 PM 41.4831 -107.7539 81° East 447 514 41,000  Level Denver Center
Tue 05:28:39 PM 41.5047 -107.5694 81° East 450 518 41,000  Level Denver Center
Tue 05:29:41 PM 41.5225 -107.4142 81° East 446 513 41,000  Level Denver Center
Tue 05:30:43 PM 41.5436 -107.2292 81° East 450 518 41,000  Level Denver Center
Tue 05:31:45 PM 41.5619 -107.0725 81° East 450 518 41,000  Level Denver Center
Tue 05:32:47 PM 41.5781 -106.9133 82° East 452 520 41,000  Level Denver Center
Tue 05:33:49 PM 41.5933 -106.7269 84° East 451 519 41,000  Level Denver Center
Tue 05:34:51 PM 41.6097 -106.5667 82° East 455 524 41,000  Level Denver Center
Tue 05:35:54 PM 41.6325 -106.3872 80° East 457 526 41,000  Level Denver Center
Tue 05:36:56 PM 41.6506 -106.2006 83° East 454 522 41,000  Level Denver Center
Tue 05:37:58 PM 41.6669 -106.0392 82° East 458 527 41,000  Level Denver Center
Tue 05:39:00 PM 41.6842 -105.8533 83° East 453 521 41,000  Level Denver Center
Tue 05:40:02 PM 41.7011 -105.6972 82° East 446 513 41,000  Level Denver Center
Tue 05:41:04 PM 41.7192 -105.5133 82° East 447 514 41,000  Level Denver Center
Tue 05:42:06 PM 41.7342 -105.3561 83° East 448 516 41,000  Level Denver Center
Tue 05:43:08 PM 41.7478 -105.1967 83° East 451 519 41,000  Level Denver Center
Tue 05:44:10 PM 41.7650 -105.0106 83° East 453 521 41,000  Level Denver Center
Tue 05:45:12 PM 41.7797 -104.8533 83° East 451 519 41,000  Level Denver Center
Tue 05:46:14 PM 41.7956 -104.6703 83° East 446 513 41,000  Level Denver Center
Tue 05:47:16 PM 41.8089 -104.5142 83° East 443 510 41,000  Level Denver Center
Tue 05:48:18 PM 41.8247 -104.3306 83° East 447 514 41,000  Level Denver Center
Tue 05:49:20 PM 41.8378 -104.1708 84° East 451 519 41,000  Level Denver Center
Tue 05:50:22 PM 41.8528 -103.9861 84° East 448 516 41,000  Level Denver Center
Tue 05:51:24 PM 41.8664 -103.8253 83° East 453 521 41,000  Level Denver Center
Tue 05:52:26 PM 41.8803 -103.6392 84° East 451 519 41,000  Level Denver Center
Tue 05:53:28 PM 41.8933 -103.4800 84° East 449 517 41,000  Level Denver Center
Tue 05:54:30 PM 41.9197 -103.2933 79° East 454 522 41,000  Level Denver Center
Tue 05:55:32 PM 41.9414 -103.1358 79° East 452 520 41,000  Level Denver Center
Tue 05:56:35 PM 41.9675 -102.9506 79° East 453 521 41,000  Level Denver Center
Tue 05:57:37 PM 41.9903 -102.7908 79° East 456 525 41,000  Level Denver Center
Tue 05:58:39 PM 42.0022 -102.6033 85° East 453 521 41,000  Level Denver Center
Tue 05:59:42 PM 42.0061 -102.4436 88° East 451 519 41,000  Level Denver Center
Tue 06:00:44 PM 42.0111 -102.2547 88° East 453 521 41,000  Level Denver Center
Tue 06:01:46 PM 42.0144 -102.1258 88° East 453 521 41,000  Level Denver Center
Tue 06:02:48 PM 42.0200 -101.9103 88° East 451 519 41,000  Level Denver Center
Tue 06:03:50 PM 42.0244 -101.7483 88° East 453 521 41,000  Level Denver Center
Tue 06:04:52 PM 42.0269 -101.5597 89° East 453 521 41,000  Level Denver Center
Tue 06:05:54 PM 42.0297 -101.3975 89° East 452 520 41,000  Level Denver Center
Tue 06:06:56 PM 42.0333 -101.2092 88° East 451 519 41,000  Level Denver Center
Tue 06:07:58 PM 42.0364 -101.0464 88° East 453 521 41,000  Level Denver Center
Tue 06:09:00 PM 42.0389 -100.8567 89° East 452 520 41,000  Level Denver Center
Tue 06:10:03 PM 42.0408 -100.6942 89° East 452 520 41,000  Level Denver Center
Tue 06:11:05 PM 42.0422 -100.5053 89° East 452 520 41,000  Level Denver Center
Tue 06:12:07 PM 42.0442 -100.3422 89° East 454 522 41,000  Level Denver Center
Tue 06:13:09 PM 42.0456 -100.1522 89° East 456 525 41,000  Level Denver Center
Tue 06:14:11 PM 42.0464 -99.9897 90° East 455 524 41,000  Level Denver Center
Tue 06:15:13 PM 42.0472 -99.8258 90° East 455 524 41,000  Level Denver Center
Tue 06:16:15 PM 42.0478 -99.6561 90° East 455 524 41,000  Level Denver Center
Tue 06:17:17 PM 42.0486 -99.4503 90° East 456 525 41,000  Level Denver Center
Tue 06:18:19 PM 42.0489 -99.2778 90° East 458 527 41,000  Level Denver Center
Tue 06:19:21 PM 42.0483 -99.1067 90° East 457 526 41,000  Level Denver Center
Tue 06:20:23 PM 42.0478 -98.9353 90° East 457 526 41,000  Level Denver Center
Tue 06:21:25 PM 42.0481 -98.7633 90° East 458 527 41,000  Level Denver Center
Tue 06:22:27 PM 42.0464 -98.5922 91° East 457 526 41,000  Level Denver Center
Tue 06:23:29 PM 42.0453 -98.4206 90° East 457 526 41,000  Level Denver Center
Tue 06:24:58 PM 42.0431 -98.1489 91° East 456 525 41,000  Level Minneapolis Center
Tue 06:25:59 PM 42.0419 -97.9958 91° East 457 526 41,000  Level Minneapolis Center
Tue 06:27:00 PM 42.0390 -97.8387 91° East  Level FlightAware Approximate
Tue 06:30:07 PM 42.0319 -97.2803 92° East 455 524 41,000  Level Minneapolis Center
Tue 06:31:09 PM 42.0292 -97.1092 91° East 456 525 41,000  Level Minneapolis Center
Tue 06:32:11 PM 42.0261 -96.9386 91° East 457 526 41,000  Level Minneapolis Center
Tue 06:33:13 PM 42.0214 -96.7692 92° East 454 522 41,000  Level Minneapolis Center
Tue 06:34:00 PM 42.0130 -96.7569 91° East  Level FlightAware Approximate
Tue 06:34:15 PM 42.0178 -96.5981 92° East 456 525 41,000  Level Minneapolis Center
Tue 06:35:00 PM 42.0084 -96.6024 92° East  Level FlightAware Approximate
Tue 06:35:17 PM 42.0122 -96.3939 92° East 454 522 41,000  Level Minneapolis Center
Tue 06:36:19 PM 42.0083 -96.2225 92° East 457 526 41,000  Level Minneapolis Center
Tue 06:37:21 PM 42.0033 -96.0519 92° East 455 524 41,000  Level Minneapolis Center
Tue 06:38:23 PM 41.9975 -95.8828 93° East 451 519 41,000  Level Minneapolis Center
Tue 06:39:25 PM 41.9931 -95.7128 92° East 453 521 41,000  Level Minneapolis Center
Tue 06:40:27 PM 41.9872 -95.5414 93° East 455 524 41,000  Level Minneapolis Center
Tue 06:41:29 PM 41.9817 -95.3714 92° East 454 522 41,000  Level Minneapolis Center
Tue 06:42:31 PM 41.9742 -95.1686 93° East 452 520 41,000  Level Minneapolis Center
Tue 06:43:33 PM 41.9672 -95.0008 93° East 450 518 41,000  Level Minneapolis Center
Tue 06:44:35 PM 41.9611 -94.8328 93° East 449 517 41,000  Level Minneapolis Center
Tue 06:45:37 PM 41.9550 -94.6639 93° East 451 519 41,000  Level Minneapolis Center
Tue 06:46:39 PM 41.9467 -94.4956 94° East 452 520 41,000  Level Minneapolis Center
Tue 06:47:41 PM 41.9414 -94.3286 92° East 448 516 41,000  Level Minneapolis Center
Tue 06:48:43 PM 41.9339 -94.1603 93° East 450 518 41,000  Level Minneapolis Center
Tue 06:49:45 PM 41.9239 -93.9575 94° East 453 521 41,000  Level Minneapolis Center
Tue 06:50:47 PM 41.9156 -93.7933 94° East 453 521 41,000  Level Minneapolis Center
Tue 06:51:49 PM 41.9069 -93.6261 94° East 453 521 41,000  Level Minneapolis Center
Tue 06:52:51 PM 41.8986 -93.4578 94° East 454 522 41,000  Level Minneapolis Center
Tue 06:53:53 PM 41.8906 -93.2908 94° East 452 520 41,000 -194 Level Minneapolis Center
Tue 06:54:55 PM 41.8803 -93.0906 94° East 452 520 40,600 -871 Descending Minneapolis Center
Tue 06:55:57 PM 41.8706 -92.9208 94° East 456 525 39,200 -1,403 Descending Minneapolis Center
Tue 06:56:59 PM 41.8606 -92.7386 94° East 461 531 37,700 -1,261 Descending Minneapolis Center
Tue 06:57:56 PM 41.8522 -92.5981 95° East 470 541 36,700 -1,613 Descending Chicago Center
Tue 06:58:58 PM 41.8400 -92.3953 95° East 463 533 34,500 -1,694 Descending Chicago Center
Tue 07:00:00 PM 41.8294 -92.2228 95° East 467 537 33,200 -774 Descending Chicago Center
Tue 07:01:02 PM 41.8183 -92.0439 95° East 479 551 32,900 -823 Descending Chicago Center
Tue 07:02:04 PM 41.8033 -91.8658 96° East 487 560 31,500 -1,776 Descending Chicago Center
Tue 07:03:07 PM 41.7472 -91.6622 110° East 491 565 29,200 -2,081 Descending Chicago Center
Tue 07:04:08 PM 41.7017 -91.4947 110° East 490 564 27,200 -1,073 Descending Chicago Center
Tue 07:05:10 PM 41.6564 -91.3275 110° East 487 560 27,000 -96 Descending Chicago Center
Tue 07:06:13 PM 41.6103 -91.1614 110° East 485 558 27,000  Level Chicago Center
Tue 07:07:15 PM 41.5639 -90.9950 110° East 484 557 27,000  Level Chicago Center
Tue 07:08:17 PM 41.5136 -90.8161 111° Southeast 484 557 27,000  Level Chicago Center
Tue 07:09:19 PM 41.4664 -90.6475 110° East 485 558 27,000  Level Chicago Center
Tue 07:10:21 PM 41.4081 -90.4478 111° Southeast 482 555 27,000 -339 Level Chicago Center
Tue 07:11:23 PM 41.3603 -90.2786 111° Southeast 486 559 26,300 -871 Descending Chicago Center
Tue 07:12:25 PM 41.3139 -90.1139 111° Southeast 480 552 25,200 -1,113 Descending Chicago Center
Tue 07:13:27 PM 41.2681 -89.9528 111° Southeast 470 541 24,000 -2,032 Descending Chicago Center
Tue 07:14:29 PM 41.2253 -89.8078 111° Southeast 419 482 21,000 -3,387 Descending Chicago Center
Tue 07:15:31 PM 41.1819 -89.6639 112° Southeast 416 479 17,000 -2,880 Descending Chicago Center
Tue 07:16:34 PM 41.1664 -89.5203 98° East 401 461 15,000 -960 Descending Chicago Center
Tue 07:17:36 PM 41.1767 -89.3456 85° East 395 455 15,000 -629 Level Chicago Center
Tue 07:18:38 PM 41.1864 -89.2008 85° East 392 451 13,700 -1,548 Descending Chicago Center
Tue 07:19:40 PM 41.1942 -89.0761 85° East 373 429 11,800 -1,790 Descending Chicago Center
Tue 07:20:42 PM 41.2058 -88.9217 84° East 357 411 10,000 -871 Descending Chicago Center
Tue 07:21:44 PM 41.2619 -88.8156 55° Northeast 349 402 10,000 -48 Level Chicago Center
Tue 07:22:46 PM 41.3214 -88.7125 52° Northeast 352 405 9,900 -823 Descending Chicago Center
Tue 07:23:48 PM 41.3725 -88.6228 53° Northeast 307 353 8,300 -1,500 Descending Chicago Center
Tue 07:24:50 PM 41.4231 -88.5356 52° Northeast 300 345 6,800 -629 Descending Chicago Center
Tue 07:25:52 PM 41.4717 -88.4497 53° Northeast 293 337 7,000 -677 Climbing Chicago Center
Tue 07:26:54 PM 41.5306 -88.3450 53° Northeast 293 337 5,400 -960 Descending Chicago Center
Tue 07:27:57 PM 41.5558 -88.2525 70° East 282 325 5,000 -192 Descending Chicago Center
Tue 07:28:59 PM 41.5597 -88.1575 87° East 259 298 5,000  Level Chicago Center
Tue 07:30:01 PM 41.5647 -88.0628 86° East 255 293 5,000  Level Chicago Center
Tue 07:31:03 PM 41.5675 -87.9833 87° East 232 267 5,000  Level Chicago Center
Tue 07:32:05 PM 41.5697 -87.9033 88° East 218 251 5,000  Level Chicago Center
Tue 07:33:07 PM 41.5725 -87.8231 87° East 216 249 5,000  Level Chicago Center
Tue 07:34:09 PM 41.6078 -87.7478 58° Northeast 209 241 5,000  Level Chicago Center
Tue 07:35:11 PM 41.6150 -87.6794 82° East 212 244 5,000  Level Chicago Center
Tue 07:36:13 PM 41.5794 -87.6200 129° Southeast 208 239 5,000  Level Chicago Center
Tue 07:37:15 PM 41.5428 -87.5622 130° Southeast 206 237 5,000 -48 Level Chicago Center
Tue 07:38:18 PM 41.5053 -87.5061 132° Southeast 203 234 4,900 -774 Descending Chicago Center
Tue 07:39:19 PM 41.5308 -87.4369 64° Northeast 201 231 3,400 -919 Descending Chicago Center
Tue 07:40:22 PM 41.5789 -87.4606 340° North 194 223 3,000 -192 Descending Chicago Center
Tue 07:41:24 PM 41.6103 -87.5072 312° West 182 209 3,000  Level Chicago Center
Tue 07:42:26 PM 41.6408 -87.5494 314° West 169 194 3,000  Level Chicago Center
Tue 07:43:28 PM 41.6719 -87.5928 314° West 165 190 3,000 -194 Level Chicago Center
Tue 07:44:30 PM 41.7086 -87.6444 314° West 162 186 2,600 -484 Descending Chicago Center
Tue 07:45:32 PM 41.7369 -87.6853 313° West 158 182 2,000 -532 Descending Chicago Center
Tue 07:46:34 PM 41.7769 -87.6975 347° North 159 183 1,500 -387 Descending Chicago Center
Tue 07:47:36 PM 41.8072 -87.7206 330° Northwest 152 175 1,200 -194 Descending Chicago Center
Tue 07:48:38 PM 41.7986 -87.7608 254° West 145 167 1,100 -97 Descending Chicago Center

Login

Don't have an account? Register now (free) for customized features, flight alerts, and more!